Time;durP1;ratioP1;P1;durP2;ratioP2;P2;SDS_P1;SDS_P2;PMS_P1;PMS_P2;Temp;Humidity;BMP_temperature;BMP_pressure;BME280_temperature;BME280_humidity;BME280_pressure;Samples;Min_cycle;Max_cycle;Signal;HPM_P1;HPM_P2
2023/06/10 00:02:07;;;;;;;7.73;7.13;;;;;;;;;;5071900;28;20638;-65
2023/06/10 00:04:36;;;;;;;7.90;7.40;;;;;;;;;;5081365;28;20513;-67
2023/06/10 00:07:03;;;;;;;8.00;7.40;;;;;;;;;;5066343;28;20428;-67
2023/06/10 00:09:30;;;;;;;8.00;7.50;;;;;;;;;;5067481;28;20419;-67
2023/06/10 00:11:59;;;;;;;7.97;7.28;;;;;;;;;;5075028;28;20824;-67
2023/06/10 00:14:28;;;;;;;8.75;8.05;;;;;;;;;;5066427;28;20426;-67
2023/06/10 00:16:55;;;;;;;8.40;7.70;;;;;;;;;;5082882;28;20436;-66
2023/06/10 00:19:25;;;;;;;8.10;7.50;;;;;;;;;;5079246;28;20507;-67
2023/06/10 00:21:52;;;;;;;8.40;7.80;;;;;;;;;;5083261;28;20465;-68
2023/06/10 00:24:19;;;;;;;9.05;8.45;;;;;;;;;;5077776;28;20496;-67
2023/06/10 00:26:46;;;;;;;7.90;7.30;;;;;;;;;;5075522;28;20497;-66
2023/06/10 00:29:14;;;;;;;8.88;8.18;;;;;;;;;;5067518;28;20473;-67
2023/06/10 00:31:42;;;;;;;8.73;8.02;;;;;;;;;;5070766;28;20503;-67
2023/06/10 00:34:10;;;;;;;8.03;7.40;;;;;;;;;;5062802;28;20464;-67
2023/06/10 00:36:37;;;;;;;8.30;7.70;;;;;;;;;;5063484;28;20460;-67
2023/06/10 00:39:04;;;;;;;7.80;7.20;;;;;;;;;;5068386;28;20654;-67
2023/06/10 00:41:33;;;;;;;8.98;8.18;;;;;;;;;;5070091;28;20562;-66
2023/06/10 00:44:00;;;;;;;8.93;8.13;;;;;;;;;;5068138;28;20995;-66
2023/06/10 00:46:27;;;;;;;8.35;7.80;;;;;;;;;;5081210;28;20517;-66
2023/06/10 00:48:56;;;;;;;8.23;7.63;;;;;;;;;;5074787;28;20440;-66
2023/06/10 00:51:25;;;;;;;8.43;7.83;;;;;;;;;;5082217;28;20505;-67
2023/06/10 00:53:52;;;;;;;8.87;8.27;;;;;;;;;;5063538;28;20499;-67
2023/06/10 00:56:19;;;;;;;8.40;7.80;;;;;;;;;;5070697;28;20423;-67
2023/06/10 00:58:46;;;;;;;9.02;8.40;;;;;;;;;;5074798;28;20407;-65
2023/06/10 01:01:14;;;;;;;8.73;8.03;;;;;;;;;;5077916;28;20524;-64
2023/06/10 01:03:41;;;;;;;9.00;8.35;;;;;;;;;;5080802;28;20756;-65
2023/06/10 01:06:17;;;;;;;8.67;8.07;;;;;;;;;;5069001;28;20538;-65
2023/06/10 01:08:48;;;;;;;8.38;7.78;;;;;;;;;;5072667;28;20514;-65
2023/06/10 01:11:19;;;;;;;8.60;8.00;;;;;;;;;;5076813;28;20739;-67
2023/06/10 01:13:47;;;;;;;8.70;7.90;;;;;;;;;;5063864;28;20426;-64
2023/06/10 01:16:14;;;;;;;8.50;7.80;;;;;;;;;;5063375;28;20422;-64
2023/06/10 01:18:42;;;;;;;9.25;8.55;;;;;;;;;;5080441;28;20432;-64
2023/06/10 01:21:16;;;;;;;8.27;7.68;;;;;;;;;;5082631;28;20438;-65
2023/06/10 01:23:45;;;;;;;8.80;8.10;;;;;;;;;;5073568;28;20481;-67
2023/06/10 01:26:13;;;;;;;8.93;8.23;;;;;;;;;;5083895;28;20479;-67
2023/06/10 01:28:42;;;;;;;9.57;8.88;;;;;;;;;;5085074;28;20912;-67
2023/06/10 01:31:12;;;;;;;8.70;8.10;;;;;;;;;;5077663;28;20619;-67
2023/06/10 01:33:43;;;;;;;8.80;8.10;;;;;;;;;;5079113;28;20503;-67
2023/06/10 01:36:10;;;;;;;9.48;8.68;;;;;;;;;;5071278;28;20422;-67
2023/06/10 01:38:41;;;;;;;9.50;8.70;;;;;;;;;;5067335;28;20427;-66
2023/06/10 01:41:10;;;;;;;9.90;9.00;;;;;;;;;;5075312;28;20430;-67
2023/06/10 01:43:39;;;;;;;9.55;8.95;;;;;;;;;;5085365;28;20417;-66
2023/06/10 01:46:06;;;;;;;9.60;8.80;;;;;;;;;;5086325;28;20461;-67
2023/06/10 01:48:33;;;;;;;9.40;8.70;;;;;;;;;;5068605;28;20507;-67
2023/06/10 01:51:00;;;;;;;10.30;9.50;;;;;;;;;;5075071;28;20410;-66
2023/06/10 01:53:27;;;;;;;9.53;8.80;;;;;;;;;;5081458;28;20427;-67
2023/06/10 01:55:54;;;;;;;9.90;9.18;;;;;;;;;;5072448;28;20438;-66
2023/06/10 01:58:23;;;;;;;9.93;9.23;;;;;;;;;;5078128;28;20431;-67
2023/06/10 02:00:50;;;;;;;9.90;9.10;;;;;;;;;;5064022;28;20434;-66
2023/06/10 02:03:18;;;;;;;10.43;9.63;;;;;;;;;;5079968;28;20454;-67
2023/06/10 02:05:45;;;;;;;10.00;9.30;;;;;;;;;;5086083;28;20503;-67
2023/06/10 02:08:12;;;;;;;9.83;9.03;;;;;;;;;;5081258;28;20499;-67
2023/06/10 02:10:40;;;;;;;10.20;9.40;;;;;;;;;;5073832;28;20905;-67
2023/06/10 02:13:07;;;;;;;10.30;9.60;;;;;;;;;;5070158;28;20410;-66
2023/06/10 02:15:36;;;;;;;10.15;9.25;;;;;;;;;;5074369;28;20494;-67
2023/06/10 02:18:03;;;;;;;9.45;8.75;;;;;;;;;;5077294;28;20437;-67
2023/06/10 02:20:30;;;;;;;9.98;9.27;;;;;;;;;;5085367;28;20460;-67
2023/06/10 02:22:57;;;;;;;10.10;9.38;;;;;;;;;;5078785;28;20434;-67
2023/06/10 02:25:24;;;;;;;10.13;9.32;;;;;;;;;;5083867;28;20712;-66
2023/06/10 02:27:51;;;;;;;10.30;9.50;;;;;;;;;;5078628;28;20415;-67
2023/06/10 02:30:18;;;;;;;9.95;9.25;;;;;;;;;;5078125;28;20414;-67
2023/06/10 02:32:47;;;;;;;10.07;9.38;;;;;;;;;;5078506;28;20889;-67
2023/06/10 02:35:15;;;;;;;10.10;9.30;;;;;;;;;;5066100;28;20506;-67
2023/06/10 02:37:42;;;;;;;10.00;9.20;;;;;;;;;;5077968;28;20423;-66
2023/06/10 02:40:10;;;;;;;9.82;9.13;;;;;;;;;;5065125;28;20411;-67
2023/06/10 02:42:37;;;;;;;10.30;9.50;;;;;;;;;;5066883;28;20511;-67
2023/06/10 02:45:04;;;;;;;10.30;9.50;;;;;;;;;;5084515;28;20409;-66
2023/06/10 02:47:31;;;;;;;9.85;9.15;;;;;;;;;;5074153;28;20410;-66
2023/06/10 02:49:59;;;;;;;10.10;9.30;;;;;;;;;;5070139;28;20468;-67
2023/06/10 02:52:27;;;;;;;10.65;9.77;;;;;;;;;;5085697;28;20424;-67
2023/06/10 02:54:54;;;;;;;11.15;10.20;;;;;;;;;;5069250;28;20416;-67
2023/06/10 02:57:21;;;;;;;9.73;9.03;;;;;;;;;;5080101;28;20414;-67
2023/06/10 02:59:48;;;;;;;10.30;9.60;;;;;;;;;;5084175;28;20418;-67
2023/06/10 03:02:15;;;;;;;10.45;9.70;;;;;;;;;;5075361;28;20423;-66
2023/06/10 03:04:43;;;;;;;10.57;9.67;;;;;;;;;;5078789;28;20968;-66
2023/06/10 03:07:12;;;;;;;10.20;9.50;;;;;;;;;;5073780;28;20422;-66
2023/06/10 03:09:39;;;;;;;9.90;9.20;;;;;;;;;;5071384;28;20504;-67
2023/06/10 03:12:07;;;;;;;10.48;9.68;;;;;;;;;;5074946;28;20422;-67
2023/06/10 03:14:34;;;;;;;10.52;9.70;;;;;;;;;;5067870;28;20410;-67
2023/06/10 03:17:02;;;;;;;9.90;9.20;;;;;;;;;;5079813;28;20912;-66
2023/06/10 03:19:30;;;;;;;10.68;9.95;;;;;;;;;;5079550;28;20528;-67
2023/06/10 03:21:59;;;;;;;10.95;10.15;;;;;;;;;;5076330;28;21037;-67
2023/06/10 03:24:27;;;;;;;10.57;9.80;;;;;;;;;;5065460;28;20480;-67
2023/06/10 03:26:55;;;;;;;9.45;8.85;;;;;;;;;;5075235;28;20782;-67
2023/06/10 03:29:22;;;;;;;9.73;9.02;;;;;;;;;;5069875;28;20486;-66
2023/06/10 03:31:49;;;;;;;10.80;9.80;;;;;;;;;;5071088;28;20415;-67
2023/06/10 03:34:16;;;;;;;10.30;9.50;;;;;;;;;;5083386;28;20418;-67
2023/06/10 03:36:43;;;;;;;10.33;9.53;;;;;;;;;;5071908;28;20929;-67
2023/06/10 03:39:10;;;;;;;10.15;9.45;;;;;;;;;;5074622;28;20675;-66
2023/06/10 03:41:38;;;;;;;9.88;9.18;;;;;;;;;;5063245;28;20463;-66
2023/06/10 03:44:05;;;;;;;9.90;9.20;;;;;;;;;;5084153;28;20425;-66
2023/06/10 03:46:32;;;;;;;10.73;9.93;;;;;;;;;;5070591;28;20422;-66
2023/06/10 03:49:00;;;;;;;10.50;9.70;;;;;;;;;;5064758;28;20412;-66
2023/06/10 03:51:27;;;;;;;10.27;9.48;;;;;;;;;;5077122;28;20904;-67
2023/06/10 03:53:54;;;;;;;10.77;9.88;;;;;;;;;;5070850;28;20462;-67
2023/06/10 03:56:21;;;;;;;10.70;10.00;;;;;;;;;;5074854;28;20414;-67
2023/06/10 03:58:50;;;;;;;10.63;9.73;;;;;;;;;;5071201;28;20683;-66
2023/06/10 04:01:20;;;;;;;10.93;10.02;;;;;;;;;;5069054;28;20462;-66
2023/06/10 04:03:48;;;;;;;10.65;9.75;;;;;;;;;;5069519;28;20529;-65
2023/06/10 04:06:15;;;;;;;10.38;9.57;;;;;;;;;;5081673;28;20889;-65
2023/06/10 04:08:43;;;;;;;10.60;9.80;;;;;;;;;;5070915;28;20417;-67
2023/06/10 04:11:10;;;;;;;10.63;9.73;;;;;;;;;;5067117;28;20767;-66
2023/06/10 04:13:37;;;;;;;10.80;9.98;;;;;;;;;;5063479;28;20411;-67
2023/06/10 04:16:06;;;;;;;10.43;9.63;;;;;;;;;;5076875;28;20421;-66
2023/06/10 04:18:33;;;;;;;10.43;9.65;;;;;;;;;;5079876;28;20481;-72
2023/06/10 04:21:01;;;;;;;10.65;9.80;;;;;;;;;;5084570;28;20494;-73
2023/06/10 04:23:28;;;;;;;10.70;9.90;;;;;;;;;;5075837;28;20423;-72
2023/06/10 04:25:55;;;;;;;11.07;10.27;;;;;;;;;;5088918;28;20417;-73
2023/06/10 04:28:22;;;;;;;10.30;9.45;;;;;;;;;;5085559;28;20475;-73
2023/06/10 04:30:50;;;;;;;10.65;9.65;;;;;;;;;;5079872;28;20423;-73
2023/06/10 04:33:18;;;;;;;11.10;10.10;;;;;;;;;;5066160;28;20419;-73
2023/06/10 04:35:47;;;;;;;10.95;10.15;;;;;;;;;;5071921;28;20429;-73
2023/06/10 04:40:43;;;;;;;9.83;9.13;;;;;;;;;;5082952;28;20497;-65
2023/06/10 04:43:10;;;;;;;9.93;9.02;;;;;;;;;;5087746;28;20433;-65
2023/06/10 04:45:37;;;;;;;10.43;9.63;;;;;;;;;;5088473;28;20804;-66
2023/06/10 04:48:04;;;;;;;9.43;8.82;;;;;;;;;;5088524;28;20922;-65
2023/06/10 04:50:33;;;;;;;9.65;8.95;;;;;;;;;;5106812;28;20417;-66
2023/06/10 04:53:00;;;;;;;10.10;9.10;;;;;;;;;;5109786;28;20415;-65
2023/06/10 04:55:27;;;;;;;11.00;10.20;;;;;;;;;;5104340;28;20498;-65
2023/06/10 04:57:54;;;;;;;11.05;10.15;;;;;;;;;;5107081;27;20419;-65
2023/06/10 05:00:22;;;;;;;10.70;9.90;;;;;;;;;;5112661;27;20478;-65
2023/06/10 05:02:49;;;;;;;10.95;9.95;;;;;;;;;;5107818;27;20430;-64
2023/06/10 05:05:17;;;;;;;10.10;9.30;;;;;;;;;;5106428;27;20422;-65
2023/06/10 05:07:45;;;;;;;10.30;9.45;;;;;;;;;;5105034;28;20929;-66
2023/06/10 05:10:12;;;;;;;10.40;9.60;;;;;;;;;;5097825;28;20425;-66
2023/06/10 05:12:39;;;;;;;9.97;9.27;;;;;;;;;;5112336;28;20494;-66
2023/06/10 05:15:07;;;;;;;9.77;8.98;;;;;;;;;;5095739;28;20420;-65
2023/06/10 05:17:34;;;;;;;9.13;8.52;;;;;;;;;;5103035;28;20428;-66
2023/06/10 05:20:02;;;;;;;9.00;8.30;;;;;;;;;;5097552;28;20411;-65
2023/06/10 05:22:29;;;;;;;8.88;8.18;;;;;;;;;;5101876;28;20436;-65
2023/06/10 05:24:57;;;;;;;8.65;7.95;;;;;;;;;;5094866;28;20408;-65
2023/06/10 05:27:25;;;;;;;9.32;8.63;;;;;;;;;;5101637;28;20482;-64
2023/06/10 05:29:52;;;;;;;8.50;7.90;;;;;;;;;;5100580;28;20485;-65
2023/06/10 05:32:19;;;;;;;8.43;7.82;;;;;;;;;;5100936;28;20503;-65
2023/06/10 05:34:46;;;;;;;8.60;8.00;;;;;;;;;;5093478;28;20424;-65
2023/06/10 05:37:14;;;;;;;8.75;8.05;;;;;;;;;;5103038;28;20412;-66
2023/06/10 05:39:41;;;;;;;8.75;7.90;;;;;;;;;;5097441;28;20416;-66
2023/06/10 05:42:10;;;;;;;9.30;8.50;;;;;;;;;;5105335;28;20418;-66
2023/06/10 05:44:37;;;;;;;9.00;8.30;;;;;;;;;;5097171;28;20462;-66
2023/06/10 05:47:04;;;;;;;8.80;8.10;;;;;;;;;;5111754;28;20416;-65
2023/06/10 05:49:31;;;;;;;8.10;7.43;;;;;;;;;;5110815;28;20440;-66
2023/06/10 05:51:59;;;;;;;7.88;7.28;;;;;;;;;;5098945;28;20421;-66
2023/06/10 05:54:26;;;;;;;7.82;7.22;;;;;;;;;;5124655;27;20412;-65
2023/06/10 05:56:53;;;;;;;7.85;7.10;;;;;;;;;;5110209;28;20427;-65
2023/06/10 05:59:22;;;;;;;8.10;7.40;;;;;;;;;;5111490;28;20412;-64
2023/06/10 06:01:50;;;;;;;8.27;7.68;;;;;;;;;;5123574;27;21094;-66
2023/06/10 06:04:17;;;;;;;8.20;7.50;;;;;;;;;;5100016;28;20424;-66
2023/06/10 06:06:44;;;;;;;8.10;7.50;;;;;;;;;;5100887;28;20557;-66
2023/06/10 06:09:11;;;;;;;7.60;7.00;;;;;;;;;;5109894;28;20883;-67
2023/06/10 06:11:38;;;;;;;8.43;7.72;;;;;;;;;;5105721;28;20414;-65
2023/06/10 06:14:05;;;;;;;8.00;7.40;;;;;;;;;;5103276;28;20419;-64
2023/06/10 06:16:34;;;;;;;7.97;7.38;;;;;;;;;;5091996;28;20414;-64
2023/06/10 06:19:01;;;;;;;7.40;6.80;;;;;;;;;;5103202;28;20416;-64
2023/06/10 06:21:28;;;;;;;7.63;6.93;;;;;;;;;;5091602;28;20418;-63
2023/06/10 06:23:55;;;;;;;7.30;6.80;;;;;;;;;;5100302;28;20416;-64
2023/06/10 06:26:22;;;;;;;7.25;6.55;;;;;;;;;;5104085;28;20417;-65
2023/06/10 06:28:49;;;;;;;7.70;7.00;;;;;;;;;;5097443;28;20465;-65
2023/06/10 06:31:16;;;;;;;7.20;6.60;;;;;;;;;;5099484;28;20423;-63
2023/06/10 06:33:45;;;;;;;7.32;6.82;;;;;;;;;;5100119;28;20586;-64
2023/06/10 06:36:12;;;;;;;6.80;6.15;;;;;;;;;;5102952;28;20408;-64
2023/06/10 06:38:39;;;;;;;6.72;6.13;;;;;;;;;;5101211;28;20440;-64
2023/06/10 06:41:06;;;;;;;6.53;6.03;;;;;;;;;;5103840;28;20418;-64
2023/06/10 06:43:33;;;;;;;6.90;6.30;;;;;;;;;;5100689;28;20430;-63
2023/06/10 06:46:00;;;;;;;6.60;6.10;;;;;;;;;;5095927;28;20429;-65
2023/06/10 06:48:27;;;;;;;6.60;6.10;;;;;;;;;;5108806;28;20422;-62
2023/06/10 06:50:58;;;;;;;6.47;5.97;;;;;;;;;;5104835;27;20439;-64
2023/06/10 06:53:25;;;;;;;6.30;5.80;;;;;;;;;;5099569;28;20464;-64
2023/06/10 06:55:52;;;;;;;6.90;6.20;;;;;;;;;;5108635;28;20936;-64
2023/06/10 06:58:19;;;;;;;6.65;6.05;;;;;;;;;;5107478;28;20423;-63
2023/06/10 07:00:46;;;;;;;6.75;6.25;;;;;;;;;;5098020;28;20430;-64
2023/06/10 07:03:13;;;;;;;6.30;5.80;;;;;;;;;;5103155;28;20435;-64
2023/06/10 07:05:40;;;;;;;6.27;5.70;;;;;;;;;;5100074;28;20907;-64
2023/06/10 07:08:09;;;;;;;6.57;5.97;;;;;;;;;;5101632;28;20422;-65
2023/06/10 07:10:36;;;;;;;6.50;5.90;;;;;;;;;;5110260;28;20420;-64
2023/06/10 07:13:03;;;;;;;6.70;6.10;;;;;;;;;;5092814;28;20497;-63
2023/06/10 07:15:30;;;;;;;6.70;6.20;;;;;;;;;;5106315;28;20412;-63
2023/06/10 07:17:57;;;;;;;6.30;5.80;;;;;;;;;;5099234;28;20417;-64
2023/06/10 07:20:24;;;;;;;6.40;6.00;;;;;;;;;;5089201;28;20418;-64
2023/06/10 07:22:51;;;;;;;6.20;5.80;;;;;;;;;;5093628;28;20431;-64
2023/06/10 07:25:20;;;;;;;6.30;5.70;;;;;;;;;;5099413;28;20421;-63
2023/06/10 07:27:47;;;;;;;6.68;6.18;;;;;;;;;;5089491;28;20878;-63
2023/06/10 07:30:14;;;;;;;6.00;5.50;;;;;;;;;;5112022;27;20923;-63
2023/06/10 07:32:41;;;;;;;5.93;5.50;;;;;;;;;;5107548;27;20418;-63
2023/06/10 07:35:10;;;;;;;5.90;5.43;;;;;;;;;;5089409;28;20417;-63
2023/06/10 07:37:37;;;;;;;6.72;6.03;;;;;;;;;;5089267;28;20453;-63
2023/06/10 07:40:04;;;;;;;8.35;7.65;;;;;;;;;;5092902;28;20792;-63
2023/06/10 07:42:34;;;;;;;6.73;6.13;;;;;;;;;;5099594;28;20418;-63
2023/06/10 07:45:01;;;;;;;6.60;6.10;;;;;;;;;;5098592;28;20414;-63
2023/06/10 07:47:28;;;;;;;8.13;7.38;;;;;;;;;;5095507;28;20425;-63
2023/06/10 07:49:55;;;;;;;10.20;9.23;;;;;;;;;;5108379;28;20400;-63
2023/06/10 07:52:22;;;;;;;6.85;6.25;;;;;;;;;;5090075;28;20914;-64
2023/06/10 07:54:49;;;;;;;6.95;6.25;;;;;;;;;;5103317;28;20809;-63
2023/06/10 07:57:17;;;;;;;10.40;9.40;;;;;;;;;;5102082;28;20481;-64
2023/06/10 07:59:45;;;;;;;8.60;7.70;;;;;;;;;;5098314;28;20416;-63
2023/06/10 08:02:12;;;;;;;8.85;8.15;;;;;;;;;;5102806;28;20417;-64
2023/06/10 08:04:39;;;;;;;7.68;6.97;;;;;;;;;;5095566;28;20424;-64
2023/06/10 08:07:06;;;;;;;6.47;5.97;;;;;;;;;;5099863;28;20447;-65
2023/06/10 08:09:33;;;;;;;6.20;5.70;;;;;;;;;;5108868;28;20439;-65
2023/06/10 08:12:01;;;;;;;6.40;5.80;;;;;;;;;;5109581;28;20434;-65
2023/06/10 08:14:28;;;;;;;6.22;5.72;;;;;;;;;;5107620;28;20450;-64
2023/06/10 08:16:56;;;;;;;6.10;5.60;;;;;;;;;;5093448;28;20418;-65
2023/06/10 08:19:23;;;;;;;6.72;6.13;;;;;;;;;;5102023;28;20432;-63
2023/06/10 08:21:50;;;;;;;6.00;5.50;;;;;;;;;;5101900;28;20465;-65
2023/06/10 08:24:18;;;;;;;6.20;5.63;;;;;;;;;;5101071;28;20436;-63
2023/06/10 08:26:45;;;;;;;6.90;6.40;;;;;;;;;;5099462;28;20505;-64
2023/06/10 08:29:13;;;;;;;6.68;5.95;;;;;;;;;;5091371;28;20420;-64
2023/06/10 08:31:42;;;;;;;6.50;6.00;;;;;;;;;;5103040;28;20436;-66
2023/06/10 08:34:11;;;;;;;5.85;5.45;;;;;;;;;;5095948;28;20923;-74
2023/06/10 08:36:38;;;;;;;5.72;5.22;;;;;;;;;;5100831;28;20508;-71
2023/06/10 08:39:08;;;;;;;6.22;5.72;;;;;;;;;;5096668;28;22335;-70
2023/06/10 08:41:37;;;;;;;5.50;5.10;;;;;;;;;;5101482;28;20438;-72
2023/06/10 08:44:09;;;;;;;5.93;5.47;;;;;;;;;;5104566;28;20427;-74
2023/06/10 08:46:36;;;;;;;5.53;5.10;;;;;;;;;;5097619;28;20792;-72
2023/06/10 08:49:04;;;;;;;5.50;5.20;;;;;;;;;;5094189;28;20881;-71
2023/06/10 08:51:34;;;;;;;5.80;5.40;;;;;;;;;;5106522;28;20504;-71
2023/06/10 08:54:03;;;;;;;5.90;5.40;;;;;;;;;;5094587;28;20413;-73
2023/06/10 08:56:31;;;;;;;6.30;5.70;;;;;;;;;;5093250;28;20445;-72
2023/06/10 08:58:58;;;;;;;6.03;5.53;;;;;;;;;;5102760;28;20898;-71
2023/06/10 09:01:26;;;;;;;5.60;5.15;;;;;;;;;;5093976;28;20437;-75
2023/06/10 09:03:53;;;;;;;6.00;5.40;;;;;;;;;;5095007;28;20803;-70
2023/06/10 09:06:20;;;;;;;5.85;5.45;;;;;;;;;;5097965;28;20427;-72
2023/06/10 09:08:49;;;;;;;6.07;5.47;;;;;;;;;;5104043;28;20423;-72
2023/06/10 09:11:16;;;;;;;5.10;4.70;;;;;;;;;;5101853;28;20468;-71
2023/06/10 09:13:43;;;;;;;5.63;5.22;;;;;;;;;;5098947;28;20427;-70
2023/06/10 09:16:11;;;;;;;5.72;5.32;;;;;;;;;;5104843;28;21021;-72
2023/06/10 09:18:39;;;;;;;5.70;5.30;;;;;;;;;;5095763;28;20428;-74
2023/06/10 09:21:06;;;;;;;5.53;5.03;;;;;;;;;;5098083;28;20417;-70
2023/06/10 09:23:33;;;;;;;5.43;4.97;;;;;;;;;;5087165;28;20431;-70
2023/06/10 09:26:03;;;;;;;5.60;5.20;;;;;;;;;;5094884;28;20428;-69
2023/06/10 09:28:30;;;;;;;5.35;4.85;;;;;;;;;;5098329;28;20416;-69
2023/06/10 09:31:05;;;;;;;4.97;4.68;;;;;;;;;;5091263;28;20419;-67
2023/06/10 09:33:32;;;;;;;5.35;4.70;;;;;;;;;;5106838;28;20434;-67
2023/06/10 09:36:01;;;;;;;5.20;4.80;;;;;;;;;;5106668;28;20412;-67
2023/06/10 09:38:31;;;;;;;5.05;4.70;;;;;;;;;;5094726;28;20513;-66
2023/06/10 09:40:58;;;;;;;5.18;4.78;;;;;;;;;;5102378;27;20432;-67
2023/06/10 09:43:39;;;;;;;5.40;4.90;;;;;;;;;;5103034;28;20452;-67
2023/06/10 09:46:06;;;;;;;7.30;6.55;;;;;;;;;;5097974;28;20508;-68
2023/06/10 09:48:37;;;;;;;7.85;7.25;;;;;;;;;;5108882;28;20905;-67
2023/06/10 09:51:10;;;;;;;5.75;5.25;;;;;;;;;;5101684;28;20904;-67
2023/06/10 09:53:37;;;;;;;5.20;4.80;;;;;;;;;;5109425;28;20412;-68
2023/06/10 09:56:04;;;;;;;5.70;5.30;;;;;;;;;;5097376;28;20433;-68
2023/06/10 09:58:39;;;;;;;4.90;4.60;;;;;;;;;;5100247;28;20804;-68
2023/06/10 10:01:06;;;;;;;4.85;4.55;;;;;;;;;;5097083;28;20417;-67
2023/06/10 10:03:33;;;;;;;5.10;4.80;;;;;;;;;;5108739;28;20408;-66
2023/06/10 10:06:01;;;;;;;5.00;4.60;;;;;;;;;;5111638;28;20431;-67
2023/06/10 10:08:28;;;;;;;4.88;4.57;;;;;;;;;;5109841;28;20423;-68
2023/06/10 10:10:57;;;;;;;4.90;4.50;;;;;;;;;;5099735;28;20402;-67
2023/06/10 10:13:25;;;;;;;5.10;4.70;;;;;;;;;;5096224;28;20429;-68
2023/06/10 10:15:53;;;;;;;4.72;4.43;;;;;;;;;;5111308;28;20442;-68
2023/06/10 10:18:24;;;;;;;4.95;4.55;;;;;;;;;;5097801;28;20766;-68
2023/06/10 10:20:52;;;;;;;5.20;4.80;;;;;;;;;;5105950;28;20469;-67
2023/06/10 10:23:22;;;;;;;5.10;4.60;;;;;;;;;;5098854;27;20480;-69
2023/06/10 10:25:53;;;;;;;5.00;4.70;;;;;;;;;;5103820;27;20433;-68
2023/06/10 10:28:21;;;;;;;4.68;4.28;;;;;;;;;;5101341;28;20910;-67
2023/06/10 10:30:50;;;;;;;4.72;4.43;;;;;;;;;;5117573;27;20855;-67
2023/06/10 10:33:22;;;;;;;4.93;4.53;;;;;;;;;;5100623;28;20901;-68
2023/06/10 10:35:49;;;;;;;4.78;4.25;;;;;;;;;;5111072;27;20428;-68
2023/06/10 10:38:16;;;;;;;4.60;4.20;;;;;;;;;;5106272;28;20412;-67
2023/06/10 10:40:44;;;;;;;4.60;4.30;;;;;;;;;;5118007;23;20501;-76
2023/06/10 10:43:11;;;;;;;4.50;4.20;;;;;;;;;;5109554;28;20444;-76
2023/06/10 10:45:38;;;;;;;4.80;4.30;;;;;;;;;;5103594;28;20430;-77
2023/06/10 10:48:08;;;;;;;4.40;4.10;;;;;;;;;;5111891;28;21045;-76
2023/06/10 10:50:37;;;;;;;4.75;4.22;;;;;;;;;;5104223;28;20410;-74
2023/06/10 10:53:05;;;;;;;4.50;4.20;;;;;;;;;;5078197;28;20426;-76
2023/06/10 10:55:32;;;;;;;4.55;4.15;;;;;;;;;;5077735;28;20435;-76
2023/06/10 10:58:00;;;;;;;4.60;4.30;;;;;;;;;;5070772;28;20419;-75
2023/06/10 11:00:31;;;;;;;4.60;4.20;;;;;;;;;;5089382;28;20907;-76
2023/06/10 11:03:06;;;;;;;5.00;4.60;;;;;;;;;;5090085;28;20428;-75
2023/06/10 11:05:37;;;;;;;4.78;4.00;;;;;;;;;;5071641;28;20632;-76
2023/06/10 11:08:06;;;;;;;4.30;4.00;;;;;;;;;;5083016;28;20827;-75
2023/06/10 11:10:33;;;;;;;4.65;4.35;;;;;;;;;;5083363;28;20982;-75
2023/06/10 11:13:00;;;;;;;4.35;4.05;;;;;;;;;;5079674;28;20784;-75
2023/06/10 11:15:28;;;;;;;4.55;4.25;;;;;;;;;;5081380;28;20421;-74
2023/06/10 11:18:08;;;;;;;4.30;4.00;;;;;;;;;;5089700;28;20483;-74
2023/06/10 11:20:55;;;;;;;4.40;4.10;;;;;;;;;;5081015;28;20939;-76
2023/06/10 11:23:34;;;;;;;4.10;3.80;;;;;;;;;;5078379;28;20421;-77
2023/06/10 11:26:17;;;;;;;4.35;4.05;;;;;;;;;;5079144;28;20435;-76
2023/06/10 11:29:02;;;;;;;4.10;3.80;;;;;;;;;;5076451;28;20450;-78
2023/06/10 11:31:30;;;;;;;4.18;3.88;;;;;;;;;;5077370;28;20427;-76
2023/06/10 11:33:57;;;;;;;4.03;3.72;;;;;;;;;;5080635;28;20412;-74
2023/06/10 11:36:25;;;;;;;3.80;3.50;;;;;;;;;;5083053;28;20419;-75
2023/06/10 11:38:55;;;;;;;4.00;3.70;;;;;;;;;;5084157;28;20894;-77
2023/06/10 11:41:22;;;;;;;4.10;3.70;;;;;;;;;;5084740;28;20425;-74
2023/06/10 11:43:49;;;;;;;4.10;3.80;;;;;;;;;;5082105;28;20415;-75
2023/06/10 11:46:16;;;;;;;3.95;3.75;;;;;;;;;;5093341;28;20441;-75
2023/06/10 11:48:50;;;;;;;4.00;3.70;;;;;;;;;;5096277;28;20430;-78
2023/06/10 11:51:17;;;;;;;3.90;3.60;;;;;;;;;;5098177;28;20421;-75
2023/06/10 11:53:45;;;;;;;4.07;3.67;;;;;;;;;;5079737;28;20412;-75
2023/06/10 11:56:13;;;;;;;3.60;3.40;;;;;;;;;;5080084;28;20404;-75
2023/06/10 11:58:44;;;;;;;3.88;3.67;;;;;;;;;;5078786;28;20890;-74
2023/06/10 12:01:12;;;;;;;4.25;3.95;;;;;;;;;;5087457;28;21207;-75
2023/06/10 12:03:39;;;;;;;4.80;3.70;;;;;;;;;;5082636;28;20438;-76
2023/06/10 12:06:07;;;;;;;3.90;3.50;;;;;;;;;;5081865;28;20426;-75
2023/06/10 12:08:34;;;;;;;4.10;3.80;;;;;;;;;;5086999;28;20426;-76
2023/06/10 12:11:01;;;;;;;3.80;3.50;;;;;;;;;;5086416;28;20436;-76
2023/06/10 12:13:30;;;;;;;3.70;3.30;;;;;;;;;;5073790;28;20684;-76
2023/06/10 12:16:07;;;;;;;3.53;3.33;;;;;;;;;;5076192;28;20423;-76
2023/06/10 12:18:35;;;;;;;3.30;3.00;;;;;;;;;;5086911;28;20522;-72
2023/06/10 12:21:03;;;;;;;3.03;2.83;;;;;;;;;;5080192;28;20416;-74
2023/06/10 12:23:30;;;;;;;3.25;3.05;;;;;;;;;;5080011;28;20410;-71
2023/06/10 12:25:58;;;;;;;2.95;2.75;;;;;;;;;;5084280;28;20433;-68
2023/06/10 12:28:26;;;;;;;3.90;3.60;;;;;;;;;;5089038;28;20409;-73
2023/06/10 12:31:07;;;;;;;4.20;3.80;;;;;;;;;;5081111;28;20431;-74
2023/06/10 12:33:34;;;;;;;3.53;3.33;;;;;;;;;;5076664;28;20794;-75
2023/06/10 12:36:01;;;;;;;3.58;3.28;;;;;;;;;;5080503;28;20405;-77
2023/06/10 12:38:28;;;;;;;3.60;3.30;;;;;;;;;;5089236;28;20416;-73
2023/06/10 12:40:56;;;;;;;3.10;2.90;;;;;;;;;;5083293;28;20528;-75
2023/06/10 12:43:24;;;;;;;3.40;3.10;;;;;;;;;;5083932;28;20876;-77
2023/06/10 12:45:51;;;;;;;3.30;3.05;;;;;;;;;;5073317;28;20428;-76
2023/06/10 12:48:21;;;;;;;3.63;3.33;;;;;;;;;;5074682;28;20921;-76
2023/06/10 12:50:52;;;;;;;3.30;3.05;;;;;;;;;;5080400;28;20417;-75
2023/06/10 12:53:19;;;;;;;3.40;3.10;;;;;;;;;;5087919;28;20495;-76
2023/06/10 12:55:47;;;;;;;3.30;3.00;;;;;;;;;;5085551;28;20439;-75
2023/06/10 12:58:14;;;;;;;3.60;2.90;;;;;;;;;;5087712;28;20463;-76
2023/06/10 13:00:42;;;;;;;2.83;2.63;;;;;;;;;;5088129;28;20475;-75
2023/06/10 13:03:09;;;;;;;2.97;2.70;;;;;;;;;;5081809;28;20492;-75
2023/06/10 13:05:38;;;;;;;3.10;2.80;;;;;;;;;;5078931;28;20997;-77
2023/06/10 13:08:06;;;;;;;2.90;2.70;;;;;;;;;;5083410;28;20467;-75
2023/06/10 13:10:33;;;;;;;2.80;2.60;;;;;;;;;;5086688;28;20430;-75
2023/06/10 13:13:01;;;;;;;2.63;2.50;;;;;;;;;;5080102;28;20410;-76
2023/06/10 13:15:28;;;;;;;3.40;2.90;;;;;;;;;;5090518;28;20425;-75
2023/06/10 13:17:55;;;;;;;2.95;2.70;;;;;;;;;;5086527;28;20428;-76
2023/06/10 13:20:23;;;;;;;2.77;2.57;;;;;;;;;;5083676;28;20417;-77
2023/06/10 13:22:51;;;;;;;2.80;2.60;;;;;;;;;;5088293;28;20411;-75
2023/06/10 13:25:18;;;;;;;3.10;2.80;;;;;;;;;;5087465;28;20427;-76
2023/06/10 13:27:45;;;;;;;3.40;3.10;;;;;;;;;;5092569;28;20998;-74
2023/06/10 13:30:13;;;;;;;3.50;3.20;;;;;;;;;;5082451;28;20882;-75
2023/06/10 13:32:40;;;;;;;3.50;3.20;;;;;;;;;;5092371;28;20417;-75
2023/06/10 13:35:08;;;;;;;2.80;2.60;;;;;;;;;;5094901;28;20414;-74
2023/06/10 13:37:35;;;;;;;5.60;3.20;;;;;;;;;;5092451;28;20437;-75
2023/06/10 13:40:04;;;;;;;3.80;3.50;;;;;;;;;;5089637;28;20409;-78
2023/06/10 13:42:31;;;;;;;3.13;2.90;;;;;;;;;;5085644;28;20429;-75
2023/06/10 13:44:58;;;;;;;3.50;3.10;;;;;;;;;;5086975;28;20431;-74
2023/06/10 13:47:26;;;;;;;3.30;3.00;;;;;;;;;;5086743;28;20797;-76
2023/06/10 13:49:53;;;;;;;3.70;3.40;;;;;;;;;;5081662;28;20484;-76
2023/06/10 13:52:20;;;;;;;4.72;3.50;;;;;;;;;;5075016;28;20416;-76
2023/06/10 13:54:47;;;;;;;2.90;2.70;;;;;;;;;;5089170;28;20420;-74
2023/06/10 13:57:16;;;;;;;3.40;3.13;;;;;;;;;;5092604;28;20430;-75
2023/06/10 13:59:43;;;;;;;3.40;3.10;;;;;;;;;;5087476;28;20410;-76
2023/06/10 14:02:10;;;;;;;3.78;3.45;;;;;;;;;;5080320;28;20410;-70
2023/06/10 14:04:37;;;;;;;3.55;3.30;;;;;;;;;;5091393;28;20410;-71
2023/06/10 14:07:04;;;;;;;3.30;3.10;;;;;;;;;;5083307;28;20414;-72
2023/06/10 14:09:32;;;;;;;5.00;3.15;;;;;;;;;;5089933;28;20414;-70
2023/06/10 14:11:59;;;;;;;3.80;3.50;;;;;;;;;;5083007;28;20418;-71
2023/06/10 14:14:27;;;;;;;3.10;2.90;;;;;;;;;;5076187;28;20426;-71
2023/06/10 14:16:54;;;;;;;3.58;3.28;;;;;;;;;;5071785;28;20414;-71
2023/06/10 14:19:21;;;;;;;3.83;3.30;;;;;;;;;;5084535;28;20904;-71
2023/06/10 14:21:49;;;;;;;3.70;3.40;;;;;;;;;;5079681;28;21061;-71
2023/06/10 14:24:16;;;;;;;3.60;3.28;;;;;;;;;;5083944;28;20447;-71
2023/06/10 14:26:43;;;;;;;3.42;3.13;;;;;;;;;;5080506;28;20434;-72
2023/06/10 14:29:10;;;;;;;3.60;3.30;;;;;;;;;;5084494;28;20431;-75
2023/06/10 14:31:38;;;;;;;4.00;3.60;;;;;;;;;;5079795;28;20586;-72
2023/06/10 14:34:07;;;;;;;4.63;3.60;;;;;;;;;;5082038;28;20430;-72
2023/06/10 14:36:34;;;;;;;3.83;3.53;;;;;;;;;;5082554;28;20464;-72
2023/06/10 14:39:02;;;;;;;4.00;3.42;;;;;;;;;;5083582;28;20421;-70
2023/06/10 14:41:29;;;;;;;3.50;3.20;;;;;;;;;;5087368;28;20434;-72
2023/06/10 14:43:56;;;;;;;3.80;3.40;;;;;;;;;;5077789;28;20925;-70
2023/06/10 14:46:23;;;;;;;3.75;3.40;;;;;;;;;;5082585;28;20431;-69
2023/06/10 14:48:52;;;;;;;3.83;3.38;;;;;;;;;;5078267;28;20563;-71